Time;durP1;ratioP1;P1;durP2;ratioP2;P2;SDS_P1;SDS_P2;PMS_P1;PMS_P2;Temp;Humidity;BMP_temperature;BMP_pressure;BME280_temperature;BME280_humidity;BME280_pressure;Samples;Min_cycle;Max_cycle;Signal;HPM_P1;HPM_P2
2022/07/30 00:01:42;;;;;;;8.07;7.27;;;16.20;99.90;;;;;;5079570;28;20648;-59
2022/07/30 00:04:08;;;;;;;7.30;6.60;;;16.20;99.90;;;;;;5082540;28;20174;-60
2022/07/30 00:06:36;;;;;;;14.17;6.40;;;16.20;99.90;;;;;;5085455;28;20185;-59
2022/07/30 00:09:02;;;;;;;12.67;6.67;;;16.20;99.90;;;;;;5090999;28;20174;-59
2022/07/30 00:11:28;;;;;;;8.33;7.40;;;16.20;99.90;;;;;;5073395;28;20499;-59
2022/07/30 00:13:54;;;;;;;9.03;7.10;;;16.10;99.90;;;;;;5081861;28;20990;-59
2022/07/30 00:16:20;;;;;;;17.03;7.70;;;16.10;99.90;;;;;;5086130;28;20184;-60
2022/07/30 00:18:46;;;;;;;10.07;7.57;;;16.10;99.90;;;;;;5088479;28;20451;-59
2022/07/30 00:21:11;;;;;;;6.60;5.80;;;16.00;99.90;;;;;;5077518;28;20935;-60
2022/07/30 00:23:37;;;;;;;7.00;6.30;;;16.00;99.90;;;;;;5084633;28;20174;-60
2022/07/30 00:26:03;;;;;;;9.80;7.13;;;16.00;99.90;;;;;;5090653;28;20216;-60
2022/07/30 00:28:28;;;;;;;9.70;7.10;;;15.90;99.90;;;;;;5084600;28;20170;-60
2022/07/30 00:30:54;;;;;;;7.67;6.40;;;15.90;99.90;;;;;;5085006;28;20218;-59
2022/07/30 00:33:19;;;;;;;9.13;7.10;;;15.90;99.90;;;;;;5081671;28;20708;-59
2022/07/30 00:35:45;;;;;;;7.20;6.50;;;15.90;99.90;;;;;;5084804;28;20704;-59
2022/07/30 00:38:11;;;;;;;8.03;6.60;;;15.90;99.90;;;;;;5085502;28;20174;-59
2022/07/30 00:40:36;;;;;;;7.57;6.77;;;15.90;99.90;;;;;;5089723;28;20202;-59
2022/07/30 00:43:02;;;;;;;8.50;7.60;;;15.90;99.90;;;;;;5087350;28;20174;-61
2022/07/30 00:45:28;;;;;;;8.77;7.10;;;15.90;99.90;;;;;;5082804;28;20209;-59
2022/07/30 00:47:53;;;;;;;10.50;7.70;;;15.90;99.90;;;;;;5083165;28;20272;-60
2022/07/30 00:50:19;;;;;;;8.50;6.90;;;15.90;99.90;;;;;;5078724;28;20201;-59
2022/07/30 00:52:44;;;;;;;9.43;7.10;;;15.90;99.90;;;;;;5072535;28;20303;-60
2022/07/30 00:55:12;;;;;;;7.93;6.90;;;15.90;99.90;;;;;;5080697;28;20210;-60
2022/07/30 00:57:38;;;;;;;7.97;7.17;;;16.00;99.90;;;;;;5084977;28;20161;-59
2022/07/30 01:00:08;;;;;;;8.73;7.00;;;16.00;99.90;;;;;;5088221;28;20498;-60
2022/07/30 01:02:34;;;;;;;10.73;7.33;;;16.00;99.90;;;;;;5088954;28;20946;-59
2022/07/30 01:04:59;;;;;;;10.20;6.90;;;16.10;99.90;;;;;;5084255;28;20465;-59
2022/07/30 01:07:25;;;;;;;7.43;6.80;;;16.10;99.90;;;;;;5080193;28;20502;-59
2022/07/30 01:09:51;;;;;;;7.83;6.67;;;16.10;99.90;;;;;;5089795;28;20186;-59
2022/07/30 01:12:20;;;;;;;9.80;7.10;;;16.10;99.90;;;;;;5089569;28;20227;-59
2022/07/30 01:14:46;;;;;;;14.60;7.37;;;16.10;99.90;;;;;;5081576;28;20193;-59
2022/07/30 01:17:12;;;;;;;13.53;7.37;;;16.10;99.90;;;;;;5087675;28;20469;-60
2022/07/30 01:19:54;;;;;;;14.97;8.10;;;16.10;99.90;;;;;;5084785;28;20463;-60
2022/07/30 01:22:32;;;;;;;13.17;6.70;;;16.00;99.90;;;;;;5084128;28;20422;-60
2022/07/30 01:25:06;;;;;;;12.83;8.00;;;16.00;99.90;;;;;;5077175;28;20461;-59
2022/07/30 01:27:46;;;;;;;8.60;7.00;;;16.00;99.90;;;;;;5088328;28;20979;-59
2022/07/30 01:30:14;;;;;;;8.73;7.20;;;15.90;99.90;;;;;;5088079;28;20468;-60
2022/07/30 01:32:42;;;;;;;11.03;7.30;;;15.90;99.90;;;;;;5086602;28;21016;-60
2022/07/30 01:35:10;;;;;;;11.93;7.10;;;15.90;99.90;;;;;;5081759;28;20420;-60
2022/07/30 01:37:37;;;;;;;14.57;6.83;;;15.90;99.90;;;;;;5079031;28;20444;-60
2022/07/30 01:40:04;;;;;;;9.17;6.80;;;15.90;99.90;;;;;;5077189;28;20526;-60
2022/07/30 01:42:31;;;;;;;7.50;6.33;;;15.90;99.90;;;;;;5089151;28;20415;-60
2022/07/30 01:44:58;;;;;;;8.17;7.10;;;15.90;99.90;;;;;;5078737;28;20963;-60
2022/07/30 01:47:26;;;;;;;9.27;6.50;;;15.80;99.90;;;;;;5078497;28;20961;-59
2022/07/30 01:49:53;;;;;;;8.70;6.97;;;15.80;99.90;;;;;;5081866;28;20438;-60
2022/07/30 01:52:20;;;;;;;7.60;6.90;;;15.80;99.90;;;;;;5073927;28;20471;-59
2022/07/30 01:54:49;;;;;;;7.60;6.60;;;15.80;99.90;;;;;;5083418;28;20424;-59
2022/07/30 01:57:17;;;;;;;9.43;6.40;;;15.80;99.90;;;;;;5080171;28;20452;-60
2022/07/30 01:59:47;;;;;;;7.50;6.50;;;15.70;99.90;;;;;;5076071;28;20471;-59
2022/07/30 02:02:13;;;;;;;8.30;6.90;;;15.70;99.90;;;;;;5078588;28;20425;-60
2022/07/30 02:04:39;;;;;;;8.10;6.10;;;15.70;99.90;;;;;;5087682;28;20472;-60
2022/07/30 02:07:15;;;;;;;11.83;6.83;;;15.70;99.90;;;;;;5079759;28;20204;-59
2022/07/30 02:09:52;;;;;;;8.27;7.00;;;15.60;99.90;;;;;;5091273;28;20280;-59
2022/07/30 02:12:27;;;;;;;10.00;6.50;;;15.60;99.90;;;;;;5084619;28;20766;-60
2022/07/30 02:15:07;;;;;;;9.10;6.77;;;15.60;99.90;;;;;;5082791;28;20463;-59
2022/07/30 02:17:56;;;;;;;8.27;6.53;;;15.50;99.90;;;;;;5085746;28;20428;-60
2022/07/30 02:20:25;;;;;;;7.67;6.63;;;15.50;99.90;;;;;;5087175;28;20550;-60
2022/07/30 02:22:54;;;;;;;7.20;6.50;;;15.50;99.90;;;;;;5077686;28;20906;-60
2022/07/30 02:25:21;;;;;;;9.90;6.50;;;15.40;99.90;;;;;;5086706;28;20400;-60
2022/07/30 02:27:53;;;;;;;8.20;6.00;;;15.40;99.90;;;;;;5092797;28;20411;-60
2022/07/30 02:30:21;;;;;;;10.30;6.63;;;15.40;99.90;;;;;;5089521;28;20485;-60
2022/07/30 02:32:49;;;;;;;10.40;6.37;;;15.30;99.90;;;;;;5081906;28;20436;-59
2022/07/30 02:35:22;;;;;;;8.50;6.47;;;15.30;99.90;;;;;;5090879;28;20420;-60
2022/07/30 02:37:49;;;;;;;6.83;6.13;;;15.30;99.90;;;;;;5089472;28;20916;-59
2022/07/30 02:40:18;;;;;;;10.17;6.50;;;15.30;99.90;;;;;;5072277;28;20448;-59
2022/07/30 02:42:47;;;;;;;8.10;6.27;;;15.30;99.90;;;;;;5081366;28;21068;-60
2022/07/30 02:45:16;;;;;;;8.03;6.90;;;15.30;99.90;;;;;;5087252;28;20444;-59
2022/07/30 02:47:44;;;;;;;11.37;6.40;;;15.30;99.90;;;;;;5076499;28;20519;-60
2022/07/30 02:50:10;;;;;;;9.27;5.70;;;15.30;99.90;;;;;;5088855;28;20564;-60
2022/07/30 02:52:40;;;;;;;6.90;6.20;;;15.30;99.90;;;;;;5088137;28;22544;-60
2022/07/30 02:55:08;;;;;;;5.67;5.17;;;15.30;99.90;;;;;;5090204;28;20896;-59
2022/07/30 02:57:34;;;;;;;7.60;5.77;;;15.30;99.90;;;;;;5086492;28;20477;-60
2022/07/30 03:00:01;;;;;;;5.80;5.20;;;15.30;99.90;;;;;;5082656;28;20488;-59
2022/07/30 03:02:27;;;;;;;10.77;5.47;;;15.30;99.90;;;;;;5080183;28;20880;-62
2022/07/30 03:04:54;;;;;;;11.43;5.33;;;15.30;99.90;;;;;;5077005;28;20477;-60
2022/07/30 03:07:21;;;;;;;13.40;6.10;;;15.30;99.90;;;;;;5078867;28;20564;-60
2022/07/30 03:09:48;;;;;;;8.27;6.00;;;15.30;99.90;;;;;;5086127;28;20924;-60
2022/07/30 03:12:15;;;;;;;6.27;5.70;;;15.30;99.90;;;;;;5078133;28;20433;-59
2022/07/30 03:14:41;;;;;;;11.10;6.37;;;15.30;99.90;;;;;;5089691;28;20411;-60
2022/07/30 03:17:09;;;;;;;7.27;5.60;;;15.30;99.90;;;;;;5082836;28;20443;-60
2022/07/30 03:19:38;;;;;;;6.13;5.10;;;15.30;99.90;;;;;;5089310;28;20878;-59
2022/07/30 03:22:07;;;;;;;6.93;5.60;;;15.30;99.90;;;;;;5086220;28;20428;-59
2022/07/30 03:24:34;;;;;;;7.87;5.93;;;15.30;99.90;;;;;;5087612;28;20428;-59
2022/07/30 03:27:02;;;;;;;9.13;5.50;;;15.30;99.90;;;;;;5091503;28;20400;-59
2022/07/30 03:29:29;;;;;;;6.07;5.30;;;15.30;99.90;;;;;;5074555;28;20517;-59
2022/07/30 03:31:56;;;;;;;6.73;5.13;;;15.20;99.90;;;;;;5086570;28;20426;-59
2022/07/30 03:34:22;;;;;;;7.03;5.27;;;15.20;99.90;;;;;;5089002;28;20606;-60
2022/07/30 03:36:49;;;;;;;5.87;5.37;;;15.10;99.90;;;;;;5091387;28;20399;-59
2022/07/30 03:39:15;;;;;;;8.13;5.50;;;15.10;99.90;;;;;;5082379;28;20594;-59
2022/07/30 03:41:41;;;;;;;12.20;6.67;;;15.00;99.90;;;;;;5079766;28;20528;-60
2022/07/30 03:44:08;;;;;;;6.27;5.20;;;15.00;99.90;;;;;;5091091;28;20415;-59
2022/07/30 03:46:35;;;;;;;9.23;5.50;;;14.90;99.90;;;;;;5088187;28;20814;-60
2022/07/30 03:49:02;;;;;;;5.97;5.47;;;14.90;99.90;;;;;;5086218;28;21044;-59
2022/07/30 03:51:27;;;;;;;8.10;6.27;;;14.80;99.90;;;;;;5083686;28;20440;-60
2022/07/30 03:53:54;;;;;;;8.20;5.00;;;14.80;99.90;;;;;;5078324;28;20432;-60
2022/07/30 03:56:20;;;;;;;5.30;4.90;;;14.70;99.90;;;;;;5078499;28;20174;-60
2022/07/30 03:58:46;;;;;;;7.07;5.63;;;14.70;99.90;;;;;;5075835;28;20460;-60
2022/07/30 04:01:12;;;;;;;7.53;5.70;;;14.70;99.90;;;;;;5078038;28;20197;-60
2022/07/30 04:03:38;;;;;;;6.10;5.50;;;14.60;99.90;;;;;;5085685;28;20515;-60
2022/07/30 04:06:03;;;;;;;9.10;5.50;;;14.60;99.90;;;;;;5090572;28;20185;-60
2022/07/30 04:08:29;;;;;;;10.50;5.83;;;14.60;99.90;;;;;;5081298;28;20170;-60
2022/07/30 04:10:56;;;;;;;7.77;5.43;;;14.70;99.90;;;;;;5081638;28;20542;-60
2022/07/30 04:13:21;;;;;;;8.60;6.10;;;14.70;99.90;;;;;;5078544;28;20500;-60
2022/07/30 04:16:17;;;;;;;11.20;5.77;;;14.70;99.90;;;;;;5083954;28;20484;-59
2022/07/30 04:18:47;;;;;;;7.33;5.60;;;14.70;99.90;;;;;;5081168;28;20174;-60
2022/07/30 04:21:16;;;;;;;6.70;6.00;;;14.70;99.90;;;;;;5083170;28;20468;-60
2022/07/30 04:23:44;;;;;;;12.13;5.87;;;14.70;99.90;;;;;;5089587;28;20410;-60
2022/07/30 04:26:11;;;;;;;5.90;5.37;;;14.70;99.90;;;;;;5086776;28;20426;-60
2022/07/30 04:28:37;;;;;;;9.53;5.73;;;14.70;99.90;;;;;;5088679;28;20420;-59
2022/07/30 04:31:04;;;;;;;6.90;5.63;;;14.70;99.90;;;;;;5085717;28;20452;-60
2022/07/30 04:33:30;;;;;;;12.07;5.90;;;14.70;99.90;;;;;;5086853;28;20425;-60
2022/07/30 04:35:56;;;;;;;9.53;6.17;;;14.70;99.90;;;;;;5086806;28;20530;-61
2022/07/30 04:38:22;;;;;;;6.10;5.57;;;14.60;99.90;;;;;;5090546;28;20948;-60
2022/07/30 04:40:47;;;;;;;7.00;6.10;;;14.60;99.90;;;;;;5087118;28;20289;-61
2022/07/30 04:43:13;;;;;;;8.03;5.80;;;14.60;99.90;;;;;;5077749;28;20247;-60
2022/07/30 04:45:40;;;;;;;6.87;6.27;;;14.60;99.90;;;;;;5080820;28;20170;-60
2022/07/30 04:48:06;;;;;;;11.03;6.17;;;14.60;99.90;;;;;;5081055;28;20469;-60
2022/07/30 04:50:34;;;;;;;7.77;5.27;;;14.70;99.90;;;;;;5088514;28;20483;-60
2022/07/30 04:53:01;;;;;;;6.20;5.60;;;14.70;99.90;;;;;;5087774;28;20426;-60
2022/07/30 04:55:27;;;;;;;8.13;6.00;;;14.70;99.90;;;;;;5086473;28;20691;-60
2022/07/30 04:57:53;;;;;;;6.50;5.80;;;14.80;99.90;;;;;;5082521;28;20443;-61
2022/07/30 05:00:20;;;;;;;8.53;5.70;;;14.80;99.90;;;;;;5080579;28;20459;-60
2022/07/30 05:02:48;;;;;;;8.73;6.03;;;14.80;99.90;;;;;;5075510;28;20424;-60
2022/07/30 05:05:16;;;;;;;7.13;6.50;;;14.90;99.90;;;;;;5081744;28;20428;-60
2022/07/30 05:07:43;;;;;;;6.83;5.70;;;14.90;99.90;;;;;;5089569;28;20411;-60
2022/07/30 05:10:11;;;;;;;11.03;6.37;;;15.00;99.90;;;;;;5086210;28;20466;-60
2022/07/30 05:12:36;;;;;;;7.83;6.20;;;15.10;99.90;;;;;;5084612;28;20534;-60
2022/07/30 05:15:07;;;;;;;8.43;6.30;;;15.10;99.90;;;;;;5079577;28;20494;-60
2022/07/30 05:17:33;;;;;;;8.57;6.30;;;15.20;99.90;;;;;;5076051;28;20258;-60
2022/07/30 05:19:59;;;;;;;7.43;6.00;;;15.30;99.90;;;;;;5077201;28;20562;-60
2022/07/30 05:22:28;;;;;;;6.90;5.80;;;15.40;99.90;;;;;;5079871;28;20565;-60
2022/07/30 05:24:55;;;;;;;11.90;6.37;;;15.50;99.90;;;;;;5074695;28;20665;-60
2022/07/30 05:27:20;;;;;;;9.67;5.60;;;15.60;99.90;;;;;;5078553;28;20433;-60
2022/07/30 05:29:46;;;;;;;17.90;6.17;;;15.70;99.90;;;;;;5080606;28;20919;-60
2022/07/30 05:32:12;;;;;;;6.33;5.73;;;15.80;99.90;;;;;;5079259;28;20174;-60
2022/07/30 05:34:37;;;;;;;9.23;5.73;;;15.80;99.90;;;;;;5081125;28;20182;-60
2022/07/30 05:37:03;;;;;;;8.70;5.93;;;15.90;99.90;;;;;;5084983;28;20174;-60
2022/07/30 05:39:29;;;;;;;7.83;6.47;;;16.00;99.90;;;;;;5073546;28;20209;-60
2022/07/30 05:41:54;;;;;;;7.07;5.93;;;16.10;99.90;;;;;;5090705;28;20728;-60
2022/07/30 05:44:20;;;;;;;7.27;5.60;;;16.10;99.90;;;;;;5088218;28;20166;-60
2022/07/30 05:46:46;;;;;;;7.47;5.13;;;16.20;99.90;;;;;;5071074;28;20245;-60
2022/07/30 05:49:12;;;;;;;15.83;6.37;;;16.30;99.90;;;;;;5092609;28;20525;-60
2022/07/30 05:51:38;;;;;;;9.43;5.50;;;16.40;99.90;;;;;;5088912;28;20177;-60
2022/07/30 05:54:04;;;;;;;9.20;5.60;;;16.40;99.90;;;;;;5078366;28;20178;-61
2022/07/30 05:56:29;;;;;;;7.53;5.83;;;16.50;99.90;;;;;;5083050;28;20440;-61
2022/07/30 05:58:55;;;;;;;6.37;5.77;;;16.50;99.90;;;;;;5092683;28;20548;-60
2022/07/30 06:01:20;;;;;;;8.03;5.80;;;16.50;99.90;;;;;;5077339;28;20210;-60
2022/07/30 06:03:46;;;;;;;15.00;5.83;;;16.60;99.90;;;;;;5088106;28;20208;-60
2022/07/30 06:06:12;;;;;;;5.97;5.37;;;16.80;99.90;;;;;;5084048;28;20540;-60
2022/07/30 06:08:38;;;;;;;9.23;6.07;;;16.90;99.90;;;;;;5086645;28;20640;-60
2022/07/30 06:11:03;;;;;;;6.13;5.20;;;16.90;99.90;;;;;;5083296;28;20209;-60
2022/07/30 06:13:29;;;;;;;6.63;5.63;;;17.00;99.90;;;;;;5082908;28;20178;-60
2022/07/30 06:15:55;;;;;;;5.90;4.83;;;17.10;99.90;;;;;;5085716;28;20177;-61
2022/07/30 06:18:21;;;;;;;8.97;6.17;;;17.20;99.90;;;;;;5089953;28;20173;-60
2022/07/30 06:20:50;;;;;;;6.30;5.50;;;17.30;99.90;;;;;;5091556;28;20193;-60
2022/07/30 06:23:16;;;;;;;5.53;5.03;;;17.40;99.90;;;;;;5078951;28;20163;-60
2022/07/30 06:25:41;;;;;;;8.73;5.47;;;17.60;99.90;;;;;;5090399;28;20388;-60
2022/07/30 06:28:07;;;;;;;11.47;5.97;;;17.70;99.90;;;;;;5083248;28;20248;-60
2022/07/30 06:30:32;;;;;;;16.83;5.90;;;17.80;99.90;;;;;;5086281;28;20286;-60
2022/07/30 06:32:58;;;;;;;7.50;5.27;;;17.90;99.90;;;;;;5084483;28;20165;-61
2022/07/30 06:35:23;;;;;;;7.03;5.70;;;18.10;99.90;;;;;;5085081;28;20186;-60
2022/07/30 06:37:49;;;;;;;8.43;5.87;;;18.30;99.90;;;;;;5083946;28;20856;-60
2022/07/30 06:40:15;;;;;;;9.20;5.87;;;18.40;98.40;;;;;;5085419;28;20201;-61
2022/07/30 06:42:40;;;;;;;6.53;5.77;;;18.40;98.00;;;;;;5086596;28;20200;-61
2022/07/30 06:45:07;;;;;;;8.00;5.40;;;18.50;98.60;;;;;;5085655;28;20189;-60
2022/07/30 06:47:33;;;;;;;16.73;5.67;;;18.60;97.80;;;;;;5079878;28;20182;-60
2022/07/30 06:50:00;;;;;;;9.90;5.83;;;18.80;97.50;;;;;;5090886;28;20424;-60
2022/07/30 06:52:26;;;;;;;9.60;5.27;;;19.00;94.20;;;;;;5089940;28;20451;-61
2022/07/30 06:54:52;;;;;;;8.13;5.63;;;19.10;91.60;;;;;;5091166;28;20446;-60
2022/07/30 06:57:17;;;;;;;9.30;5.53;;;19.20;90.00;;;;;;5076801;28;20208;-60
2022/07/30 06:59:43;;;;;;;6.30;5.13;;;19.40;89.10;;;;;;5090120;28;20209;-61
2022/07/30 07:02:09;;;;;;;11.47;5.67;;;19.40;76.60;;;;;;5083422;28;20182;-60
2022/07/30 07:04:35;;;;;;;6.70;5.97;;;19.50;76.90;;;;;;5085044;28;20425;-60
2022/07/30 07:07:01;;;;;;;10.33;5.90;;;19.40;72.20;;;;;;5084808;28;20978;-60
2022/07/30 07:09:27;;;;;;;9.90;5.40;;;19.50;74.30;;;;;;5089280;28;20248;-60
2022/07/30 07:11:52;;;;;;;13.00;5.50;;;19.50;73.70;;;;;;5085488;28;21011;-60
2022/07/30 07:14:18;;;;;;;8.17;4.70;;;19.60;74.10;;;;;;5076903;28;20806;-60
2022/07/30 07:16:44;;;;;;;8.73;4.73;;;19.70;74.00;;;;;;5084340;28;20246;-60
2022/07/30 07:19:09;;;;;;;5.93;5.10;;;19.80;70.20;;;;;;5087007;28;20197;-59
2022/07/30 07:21:35;;;;;;;5.93;5.33;;;19.90;71.20;;;;;;5088720;28;20677;-60
2022/07/30 07:24:01;;;;;;;9.47;5.43;;;20.00;72.10;;;;;;5086333;28;20216;-60
2022/07/30 07:26:29;;;;;;;8.03;4.80;;;20.10;69.10;;;;;;5078919;28;20228;-60
2022/07/30 07:28:55;;;;;;;8.23;4.80;;;20.20;65.90;;;;;;5088553;28;20428;-60
2022/07/30 07:31:21;;;;;;;6.50;5.27;;;20.20;66.80;;;;;;5087060;28;20447;-60
2022/07/30 07:33:47;;;;;;;5.43;4.47;;;20.30;65.80;;;;;;5088286;28;20177;-60
2022/07/30 07:36:14;;;;;;;9.00;4.53;;;20.40;65.20;;;;;;5085273;28;20439;-60
2022/07/30 07:38:39;;;;;;;6.03;4.50;;;20.40;63.30;;;;;;5087609;28;20412;-60
2022/07/30 07:41:05;;;;;;;5.53;4.10;;;20.50;60.70;;;;;;5077694;28;20458;-61
2022/07/30 07:43:31;;;;;;;7.30;3.90;;;20.50;59.60;;;;;;5077132;28;20178;-60
2022/07/30 07:45:57;;;;;;;9.37;3.70;;;20.60;59.00;;;;;;5082061;28;20174;-60
2022/07/30 07:48:22;;;;;;;6.00;3.93;;;20.60;59.60;;;;;;5080237;28;20215;-60
2022/07/30 07:50:48;;;;;;;10.07;3.80;;;20.70;58.80;;;;;;5088526;28;20816;-60
2022/07/30 07:53:14;;;;;;;4.37;3.73;;;20.90;59.00;;;;;;5083723;28;20185;-60
2022/07/30 07:55:39;;;;;;;7.77;3.80;;;21.00;57.60;;;;;;5087088;28;20264;-59
2022/07/30 07:58:05;;;;;;;8.60;4.17;;;21.00;56.80;;;;;;5089150;28;20200;-60
2022/07/30 08:00:31;;;;;;;14.50;4.50;;;21.10;56.00;;;;;;5085566;28;20202;-59
2022/07/30 08:02:56;;;;;;;6.23;3.23;;;21.10;55.70;;;;;;5085172;28;20193;-59
2022/07/30 08:05:22;;;;;;;5.43;3.27;;;21.10;55.90;;;;;;5085171;28;20248;-58
2022/07/30 08:07:49;;;;;;;10.20;3.20;;;21.10;54.90;;;;;;5081893;28;20186;-60
2022/07/30 08:10:14;;;;;;;11.93;3.40;;;21.20;54.20;;;;;;5081026;28;20458;-59
2022/07/30 08:12:41;;;;;;;5.17;3.67;;;21.20;52.30;;;;;;5073048;28;20504;-57
2022/07/30 08:15:08;;;;;;;7.90;3.80;;;21.20;52.10;;;;;;5076722;28;20181;-58
2022/07/30 08:17:39;;;;;;;4.30;3.80;;;21.20;52.70;;;;;;5082244;28;20430;-60
2022/07/30 08:20:06;;;;;;;10.67;3.50;;;21.20;53.90;;;;;;5077283;28;20897;-61
2022/07/30 08:22:31;;;;;;;5.73;3.43;;;21.20;54.20;;;;;;5082958;28;20836;-60
2022/07/30 08:24:57;;;;;;;11.97;3.57;;;21.20;52.50;;;;;;5083635;28;20415;-60
2022/07/30 08:27:23;;;;;;;4.07;3.53;;;21.30;51.80;;;;;;5082679;28;20635;-61
2022/07/30 08:29:48;;;;;;;7.63;3.80;;;21.20;51.40;;;;;;5078878;28;20285;-60
2022/07/30 08:32:14;;;;;;;7.97;3.60;;;21.10;51.40;;;;;;5083379;28;20174;-60
2022/07/30 08:34:40;;;;;;;3.97;3.37;;;21.20;52.30;;;;;;5089188;28;20227;-60
2022/07/30 08:37:05;;;;;;;8.00;3.27;;;21.20;53.10;;;;;;5076958;28;20209;-60
2022/07/30 08:39:31;;;;;;;5.43;2.83;;;21.40;53.20;;;;;;5078675;28;20233;-60
2022/07/30 08:41:57;;;;;;;6.30;2.97;;;21.50;53.40;;;;;;5076739;28;20578;-60
2022/07/30 08:44:25;;;;;;;3.73;2.93;;;21.60;52.50;;;;;;5075992;28;20250;-58
2022/07/30 08:46:55;;;;;;;3.67;3.37;;;21.60;52.00;;;;;;5067543;28;20441;-58
2022/07/30 08:49:22;;;;;;;3.27;2.70;;;21.50;50.10;;;;;;5066428;28;20955;-58
2022/07/30 08:51:49;;;;;;;9.00;3.43;;;21.30;49.60;;;;;;5077700;28;20482;-58
2022/07/30 08:54:15;;;;;;;7.17;3.07;;;21.40;49.00;;;;;;5069104;28;20425;-58
2022/07/30 08:56:41;;;;;;;4.63;3.40;;;21.50;48.90;;;;;;5073255;28;20431;-58
2022/07/30 08:59:07;;;;;;;6.60;2.87;;;21.60;48.80;;;;;;5072592;28;20717;-58
2022/07/30 09:01:32;;;;;;;4.40;3.40;;;21.80;48.80;;;;;;5073807;28;20190;-59
2022/07/30 09:03:58;;;;;;;13.53;2.77;;;21.90;48.80;;;;;;5069481;28;20702;-59
2022/07/30 09:06:24;;;;;;;4.70;2.43;;;22.00;48.40;;;;;;5075940;28;20724;-59
2022/07/30 09:08:49;;;;;;;3.30;3.00;;;22.00;46.80;;;;;;5077989;28;20258;-58
2022/07/30 09:11:15;;;;;;;7.93;3.40;;;22.10;47.50;;;;;;5074637;28;20582;-59
2022/07/30 09:13:43;;;;;;;3.77;3.40;;;22.30;48.10;;;;;;5071090;28;20175;-58
2022/07/30 09:16:18;;;;;;;2.90;2.60;;;22.40;48.10;;;;;;5069072;28;20300;-60
2022/07/30 09:18:43;;;;;;;5.87;2.83;;;22.60;48.10;;;;;;5064766;28;20464;-60
2022/07/30 09:21:17;;;;;;;4.00;2.97;;;22.80;47.30;;;;;;5067996;28;20523;-62
2022/07/30 09:24:01;;;;;;;5.60;3.27;;;22.70;46.60;;;;;;5074653;28;20189;-62
2022/07/30 09:26:29;;;;;;;7.80;2.60;;;22.70;47.50;;;;;;5073019;28;20420;-62
2022/07/30 09:29:13;;;;;;;3.77;3.00;;;22.80;46.80;;;;;;5065292;28;20432;-63
2022/07/30 09:31:56;;;;;;;2.83;2.60;;;23.00;46.90;;;;;;5068703;28;20424;-61
2022/07/30 09:34:32;;;;;;;2.77;2.57;;;23.10;47.00;;;;;;5066541;28;20513;-61
2022/07/30 09:37:00;;;;;;;3.30;2.77;;;23.30;46.70;;;;;;5070774;28;20519;-61
2022/07/30 09:39:29;;;;;;;4.27;2.70;;;23.50;47.20;;;;;;5066822;28;20467;-61
2022/07/30 09:41:55;;;;;;;6.30;2.80;;;23.60;45.50;;;;;;5070068;28;20428;-63
2022/07/30 09:44:29;;;;;;;2.90;2.60;;;23.50;45.80;;;;;;5074400;28;20434;-62
2022/07/30 09:46:57;;;;;;;3.20;2.30;;;23.50;45.60;;;;;;5071613;28;20481;-62
2022/07/30 09:49:25;;;;;;;3.30;2.30;;;23.50;45.20;;;;;;5063800;28;20440;-62
2022/07/30 09:51:52;;;;;;;2.83;2.63;;;23.50;45.40;;;;;;5076222;28;20485;-61
2022/07/30 09:54:19;;;;;;;5.50;2.50;;;23.60;45.50;;;;;;5074289;28;20421;-61
2022/07/30 09:56:45;;;;;;;4.10;2.27;;;23.60;45.20;;;;;;5084629;28;20417;-62
2022/07/30 09:59:30;;;;;;;3.80;2.40;;;23.70;46.20;;;;;;5075230;28;20455;-61
2022/07/30 10:01:57;;;;;;;3.83;2.20;;;23.90;45.90;;;;;;5071179;28;20440;-62
2022/07/30 10:04:32;;;;;;;2.80;2.43;;;24.10;44.50;;;;;;5075845;28;20420;-62
2022/07/30 10:06:59;;;;;;;3.40;2.50;;;24.10;44.10;;;;;;5077095;28;20415;-61
2022/07/30 10:09:31;;;;;;;5.13;2.03;;;24.30;44.10;;;;;;5077611;28;20844;-62
2022/07/30 10:12:00;;;;;;;7.23;2.37;;;24.40;44.20;;;;;;5079586;28;20419;-62
2022/07/30 10:14:31;;;;;;;2.10;1.97;;;24.50;44.20;;;;;;5072929;28;20776;-61
2022/07/30 10:16:57;;;;;;;2.93;2.60;;;24.60;43.40;;;;;;5074593;28;20500;-61
2022/07/30 10:19:24;;;;;;;2.97;2.20;;;24.80;43.00;;;;;;5074156;28;20536;-62
2022/07/30 10:21:52;;;;;;;7.63;2.37;;;24.70;42.40;;;;;;5077064;28;20439;-62
2022/07/30 10:24:19;;;;;;;3.27;1.90;;;24.70;41.70;;;;;;5075659;28;20550;-61
2022/07/30 10:26:52;;;;;;;3.47;2.37;;;24.70;43.00;;;;;;5077024;28;20423;-62
2022/07/30 10:29:18;;;;;;;2.37;2.17;;;24.80;42.30;;;;;;5082511;28;20510;-61
2022/07/30 10:31:45;;;;;;;3.00;2.00;;;24.90;42.90;;;;;;5085196;28;20926;-61
2022/07/30 10:34:12;;;;;;;1.87;1.70;;;25.10;41.90;;;;;;5076076;28;20630;-62
2022/07/30 10:36:43;;;;;;;2.40;2.20;;;25.10;41.10;;;;;;5082737;28;20436;-61
2022/07/30 10:39:13;;;;;;;3.67;2.10;;;25.20;42.00;;;;;;5074382;28;20513;-61
2022/07/30 10:41:45;;;;;;;3.67;1.70;;;25.50;41.30;;;;;;5081902;28;20433;-62
2022/07/30 10:44:37;;;;;;;2.10;1.90;;;25.60;41.10;;;;;;5083796;28;20422;-61
2022/07/30 10:47:08;;;;;;;3.10;2.10;;;25.70;40.10;;;;;;5078684;28;20431;-62
2022/07/30 10:49:35;;;;;;;5.70;2.40;;;25.70;40.10;;;;;;5079618;28;20451;-61
2022/07/30 10:52:01;;;;;;;3.40;2.50;;;25.70;40.30;;;;;;5076683;28;20428;-62
2022/07/30 10:54:32;;;;;;;7.00;2.30;;;25.80;40.20;;;;;;5078157;28;21179;-62
2022/07/30 10:57:07;;;;;;;15.47;4.30;;;25.90;40.20;;;;;;5081882;28;20184;-62
2022/07/30 10:59:48;;;;;;;3.50;2.00;;;26.10;41.50;;;;;;5078414;28;20495;-62
2022/07/30 11:02:15;;;;;;;4.07;2.40;;;26.10;39.30;;;;;;5075696;28;20961;-62
2022/07/30 11:04:40;;;;;;;6.03;2.40;;;25.90;39.70;;;;;;5079565;28;20443;-62
2022/07/30 11:07:21;;;;;;;3.70;2.00;;;26.00;40.70;;;;;;5081009;28;20428;-62
2022/07/30 11:09:51;;;;;;;6.10;2.13;;;26.20;41.80;;;;;;5079148;28;20284;-61
2022/07/30 11:12:46;;;;;;;4.67;2.27;;;26.40;39.90;;;;;;5075530;28;20439;-61
2022/07/30 11:15:13;;;;;;;3.90;2.30;;;26.50;39.70;;;;;;5080860;28;20464;-62
2022/07/30 11:18:00;;;;;;;2.37;2.10;;;26.60;39.60;;;;;;5078678;28;20436;-62
2022/07/30 11:20:29;;;;;;;3.40;2.40;;;26.70;40.40;;;;;;5082663;28;20460;-62
2022/07/30 11:23:27;;;;;;;2.50;2.00;;;26.70;39.50;;;;;;5078410;28;21160;-62
2022/07/30 11:25:53;;;;;;;1.97;1.70;;;26.80;38.40;;;;;;5070936;28;20481;-61
2022/07/30 11:28:37;;;;;;;3.30;1.87;;;26.90;38.70;;;;;;5075761;28;20435;-61
2022/07/30 11:31:24;;;;;;;3.90;1.90;;;26.80;38.40;;;;;;5072490;28;20201;-62
2022/07/30 11:33:50;;;;;;;5.60;1.90;;;26.40;38.00;;;;;;5075868;28;20424;-61
2022/07/30 11:36:15;;;;;;;3.77;2.20;;;26.20;39.90;;;;;;5078809;28;20427;-62
2022/07/30 11:38:56;;;;;;;2.20;2.00;;;26.10;39.00;;;;;;5078499;28;20198;-62
2022/07/30 11:41:22;;;;;;;5.87;2.37;;;25.90;39.30;;;;;;5080644;28;20201;-61
2022/07/30 11:44:24;;;;;;;5.73;2.80;;;25.70;40.00;;;;;;5074330;28;20502;-61
2022/07/30 11:46:50;;;;;;;3.70;2.10;;;25.50;40.40;;;;;;5078858;28;20451;-61
2022/07/30 11:49:19;;;;;;;2.23;1.80;;;25.70;40.70;;;;;;5078137;28;20444;-61
2022/07/30 11:51:46;;;;;;;7.40;1.97;;;26.00;40.30;;;;;;5080082;28;20433;-61
2022/07/30 11:54:12;;;;;;;3.43;1.97;;;26.30;39.60;;;;;;5071957;28;20524;-61
2022/07/30 11:56:58;;;;;;;1.93;1.83;;;26.50;39.00;;;;;;5074265;28;20789;-61
2022/07/30 11:59:23;;;;;;;1.83;1.70;;;26.80;38.50;;;;;;5073561;28;20460;-61
2022/07/30 12:01:51;;;;;;;1.53;1.43;;;27.10;38.50;;;;;;5079280;28;20451;-61
2022/07/30 12:04:17;;;;;;;2.43;1.50;;;27.30;36.20;;;;;;5079328;28;20649;-62
2022/07/30 12:06:47;;;;;;;1.60;1.50;;;27.50;35.90;;;;;;5077214;28;20196;-62
2022/07/30 12:09:22;;;;;;;1.87;1.67;;;27.60;35.40;;;;;;5072711;28;20439;-62
2022/07/30 12:11:47;;;;;;;2.23;1.97;;;27.70;36.00;;;;;;5068508;28;20559;-62
2022/07/30 12:14:13;;;;;;;2.63;1.90;;;27.80;35.70;;;;;;5076997;28;20169;-62
2022/07/30 12:16:41;;;;;;;2.43;1.70;;;27.90;36.10;;;;;;5076757;28;20671;-61
2022/07/30 12:19:06;;;;;;;3.80;1.50;;;28.10;37.10;;;;;;5078253;28;22054;-62
2022/07/30 12:21:33;;;;;;;2.20;2.00;;;28.30;35.50;;;;;;5079788;28;20265;-61
2022/07/30 12:24:02;;;;;;;2.63;1.87;;;28.50;35.30;;;;;;5066125;28;20236;-61
2022/07/30 12:26:30;;;;;;;1.70;1.60;;;28.70;35.70;;;;;;5071547;28;20182;-61
2022/07/30 12:28:58;;;;;;;2.10;1.40;;;28.90;34.60;;;;;;5075103;28;20177;-61
2022/07/30 12:31:26;;;;;;;3.43;1.50;;;28.90;33.40;;;;;;5068549;28;20189;-61
2022/07/30 12:33:52;;;;;;;1.60;1.50;;;29.00;33.60;;;;;;5071255;28;20166;-60
2022/07/30 12:36:27;;;;;;;1.90;1.80;;;29.10;34.00;;;;;;5071529;28;22088;-61
2022/07/30 12:38:53;;;;;;;4.57;1.58;;;29.30;34.40;;;;;;5067659;28;20249;-60
2022/07/30 12:41:19;;;;;;;1.95;1.73;;;29.40;32.20;;;;;;5071553;28;20268;-60
2022/07/30 12:43:53;;;;;;;1.70;1.60;;;29.30;32.80;;;;;;5071273;28;20193;-60
2022/07/30 12:46:18;;;;;;;1.83;1.65;;;29.20;34.00;;;;;;5076354;28;20173;-61
2022/07/30 12:49:04;;;;;;;3.00;1.60;;;28.90;33.10;;;;;;5071047;28;20181;-61
2022/07/30 12:51:36;;;;;;;3.65;1.58;;;28.90;32.90;;;;;;5073595;28;20266;-61